Time;durP1;ratioP1;P1;durP2;ratioP2;P2;SDS_P1;SDS_P2;PMS_P1;PMS_P2;Temp;Humidity;BMP_temperature;BMP_pressure;BME280_temperature;BME280_humidity;BME280_pressure;Samples;Min_cycle;Max_cycle;Signal;HPM_P1;HPM_P2
2022/10/05 00:01:25;;;;;;;2.72;2.00;;;;;;;13.49;51.35;100576.13;3144514;28;20498;-65
2022/10/05 00:02:57;;;;;;;9.52;1.80;;;;;;;13.48;51.45;100571.81;3144420;28;20072;-65
2022/10/05 00:04:31;;;;;;;2.95;1.80;;;;;;;13.46;51.74;100582.38;3144271;28;20090;-65
2022/10/05 00:06:03;;;;;;;2.90;1.48;;;;;;;13.47;51.16;100584.06;3144335;28;20052;-65
2022/10/05 00:07:35;;;;;;;4.10;1.92;;;;;;;13.46;51.37;100578.88;3144767;28;20051;-64
2022/10/05 00:09:12;;;;;;;2.70;1.80;;;;;;;13.47;51.28;100578.00;3144487;28;20105;-64
2022/10/05 00:10:46;;;;;;;3.13;2.05;;;;;;;13.47;51.38;100583.22;3144518;28;20485;-64
2022/10/05 00:12:18;;;;;;;3.50;1.92;;;;;;;13.48;51.71;100584.91;3144433;28;20110;-64
2022/10/05 00:13:51;;;;;;;2.17;1.50;;;;;;;13.47;51.60;100581.44;3144559;28;20149;-64
2022/10/05 00:15:22;;;;;;;3.00;1.77;;;;;;;13.48;51.29;100590.16;3144593;28;20047;-64
2022/10/05 00:16:55;;;;;;;2.63;1.55;;;;;;;13.46;51.32;100592.84;3144657;28;20526;-64
2022/10/05 00:18:26;;;;;;;3.20;1.58;;;;;;;13.45;51.50;100580.66;3144342;28;20122;-65
2022/10/05 00:20:00;;;;;;;2.80;1.50;;;;;;;13.47;51.26;100586.69;3144540;28;20549;-65
2022/10/05 00:21:33;;;;;;;2.28;1.90;;;;;;;13.44;51.63;100581.59;3144516;28;20048;-65
2022/10/05 00:23:07;;;;;;;;;;;;;;;13.38;51.81;100585.31;3144656;28;20052;-65
2022/10/05 00:24:38;;;;;;;3.17;2.00;;;;;;;13.35;51.86;100582.84;3144302;28;20049;-66
2022/10/05 00:26:14;;;;;;;2.83;1.70;;;;;;;13.31;51.95;100581.28;3143815;28;20057;-66
2022/10/05 00:27:53;;;;;;;2.83;1.80;;;;;;;13.30;52.34;100581.34;3144560;28;20543;-66
2022/10/05 00:29:25;;;;;;;2.85;1.65;;;;;;;13.31;52.22;100589.13;3144320;28;20471;-65
2022/10/05 00:30:57;;;;;;;3.00;2.00;;;;;;;13.29;52.09;100588.34;3144368;28;20049;-66
2022/10/05 00:32:28;;;;;;;3.05;1.83;;;;;;;13.28;52.04;100593.63;3144470;28;20052;-65
2022/10/05 00:34:00;;;;;;;6.85;1.90;;;;;;;13.25;52.06;100586.78;3144552;28;20098;-66
2022/10/05 00:35:35;;;;;;;2.17;1.67;;;;;;;13.25;52.19;100589.41;3142035;28;20048;-65
2022/10/05 00:37:07;;;;;;;2.42;1.63;;;;;;;13.21;52.43;100590.41;3141472;28;20056;-66
2022/10/05 00:38:40;;;;;;;3.95;1.67;;;;;;;13.19;52.30;100581.78;3134552;28;20466;-65
2022/10/05 00:40:26;;;;;;;3.08;1.63;;;;;;;13.18;52.72;100586.16;3140030;28;20053;-65
2022/10/05 00:42:18;;;;;;;4.47;1.80;;;;;;;13.16;52.38;100592.38;3145123;28;20114;-65
2022/10/05 00:44:25;;;;;;;3.15;1.77;;;;;;;13.12;52.70;100589.03;3146858;28;20131;-66
2022/10/05 00:46:07;;;;;;;4.53;1.60;;;;;;;13.10;52.85;100588.28;3134685;28;20497;-66
2022/10/05 00:47:48;;;;;;;1.88;1.52;;;;;;;13.09;52.89;100580.47;3144485;28;20048;-66
2022/10/05 00:49:34;;;;;;;3.47;1.90;;;;;;;13.08;52.75;100584.88;3143809;28;20067;-65
2022/10/05 00:51:28;;;;;;;5.03;2.60;;;;;;;13.06;53.08;100583.22;3146567;28;20048;-66
2022/10/05 00:53:06;;;;;;;5.47;2.03;;;;;;;13.02;52.94;100582.53;3146620;28;20052;-66
2022/10/05 00:54:46;;;;;;;3.60;2.33;;;;;;;13.00;53.22;100575.66;3146413;28;20131;-65
2022/10/05 00:56:39;;;;;;;2.83;2.03;;;;;;;12.95;53.46;100574.09;3146579;28;20053;-65
2022/10/05 00:58:22;;;;;;;6.57;2.30;;;;;;;12.90;53.36;100572.59;3146344;28;20060;-65
2022/10/05 01:00:04;;;;;;;3.63;2.03;;;;;;;12.89;53.34;100579.56;3146712;28;20125;-65
2022/10/05 01:01:44;;;;;;;2.60;1.98;;;;;;;12.84;53.30;100565.84;3146733;28;20540;-66
2022/10/05 01:03:23;;;;;;;3.30;1.83;;;;;;;12.85;53.82;100572.78;3146447;28;20138;-66
2022/10/05 01:05:02;;;;;;;3.40;1.90;;;;;;;12.86;53.39;100573.63;3146321;28;20068;-64
2022/10/05 01:06:44;;;;;;;3.03;2.10;;;;;;;12.84;53.71;100568.47;3143626;28;20052;-64
2022/10/05 01:08:30;;;;;;;2.97;2.00;;;;;;;12.82;53.54;100567.66;3143270;28;20141;-65
2022/10/05 01:10:07;;;;;;;2.85;1.75;;;;;;;12.83;53.75;100574.59;3141078;28;20448;-65
2022/10/05 01:11:49;;;;;;;2.47;2.03;;;;;;;12.86;53.42;100571.84;3141338;28;20135;-65
2022/10/05 01:13:29;;;;;;;3.08;2.17;;;;;;;12.86;53.45;100571.00;3141405;28;20139;-65
2022/10/05 01:15:08;;;;;;;3.90;2.67;;;;;;;12.82;53.41;100572.91;3141037;28;20070;-64
2022/10/05 01:16:49;;;;;;;2.75;1.85;;;;;;;12.85;53.74;100578.00;3141110;28;20583;-64
2022/10/05 01:18:27;;;;;;;3.95;1.95;;;;;;;12.87;53.48;100573.56;3129008;28;20122;-64
2022/10/05 01:20:26;;;;;;;4.85;2.33;;;;;;;12.86;53.31;100574.47;3141345;28;20053;-64
2022/10/05 01:22:07;;;;;;;5.25;2.35;;;;;;;12.85;53.28;100578.00;3141031;28;20181;-64
2022/10/05 01:24:03;;;;;;;3.00;2.17;;;;;;;12.82;53.42;100569.44;3141595;28;20056;-64
2022/10/05 01:25:43;;;;;;;2.97;2.13;;;;;;;12.82;53.33;100585.97;3141308;28;20101;-64
2022/10/05 01:27:40;;;;;;;3.75;2.10;;;;;;;12.80;53.18;100573.88;3140911;28;20109;-64
2022/10/05 01:29:17;;;;;;;3.25;2.10;;;;;;;12.78;53.19;100576.56;3140909;28;20499;-64
2022/10/05 01:30:57;;;;;;;3.35;2.05;;;;;;;12.77;53.30;100568.78;3141133;28;20135;-64
2022/10/05 01:32:35;;;;;;;3.80;2.15;;;;;;;12.76;53.49;100573.16;3138596;28;20087;-64
2022/10/05 01:34:13;;;;;;;2.72;2.17;;;;;;;12.75;53.40;100579.31;3140918;28;20445;-64
2022/10/05 01:35:57;;;;;;;3.42;2.08;;;;;;;12.75;53.72;100576.69;3140481;28;20055;-64
2022/10/05 01:37:40;;;;;;;5.30;2.08;;;;;;;12.73;53.47;100581.97;3141111;28;20247;-64
2022/10/05 01:39:18;;;;;;;4.88;2.38;;;;;;;12.73;53.55;100586.34;3140950;28;20056;-64
2022/10/05 01:41:00;;;;;;;4.50;2.10;;;;;;;12.69;53.61;100584.78;3140942;28;20099;-64
2022/10/05 01:42:46;;;;;;;4.78;2.08;;;;;;;12.69;53.54;100592.63;3140928;28;20056;-64
2022/10/05 01:44:24;;;;;;;5.07;2.05;;;;;;;12.65;53.65;100586.66;3141036;28;20125;-64
2022/10/05 01:46:02;;;;;;;3.45;2.08;;;;;;;12.68;53.55;100602.22;3140775;28;20055;-64
2022/10/05 01:47:45;;;;;;;7.85;2.08;;;;;;;12.69;53.38;100595.25;3136073;28;20142;-64
2022/10/05 01:49:31;;;;;;;2.78;2.28;;;;;;;12.66;53.58;100601.44;3140890;28;20110;-64
2022/10/05 01:51:11;;;;;;;4.00;1.92;;;;;;;12.64;53.65;100597.19;3140571;28;20369;-64
2022/10/05 01:52:53;;;;;;;3.75;2.15;;;;;;;12.61;53.86;100600.78;3140744;28;20058;-64
2022/10/05 01:54:36;;;;;;;3.38;1.98;;;;;;;12.58;53.87;100605.28;3140065;28;20563;-63
2022/10/05 01:56:17;;;;;;;3.08;2.00;;;;;;;12.61;53.56;100615.59;3140767;28;20442;-63
2022/10/05 01:58:06;;;;;;;3.05;2.08;;;;;;;12.59;53.82;100606.97;3140969;28;20054;-63
2022/10/05 01:59:54;;;;;;;4.13;2.20;;;;;;;12.56;53.82;100605.31;3140818;28;20144;-64
2022/10/05 02:01:32;;;;;;;4.07;1.90;;;;;;;12.53;53.57;100606.31;3140849;28;20060;-64
2022/10/05 02:03:10;;;;;;;3.30;2.25;;;;;;;12.52;53.79;100615.06;3140713;28;20056;-64
2022/10/05 02:04:47;;;;;;;3.03;2.35;;;;;;;12.52;53.60;100609.84;3140659;28;20498;-63
2022/10/05 02:06:23;;;;;;;4.10;3.30;;;;;;;12.51;53.75;100612.50;3140622;28;20048;-63
2022/10/05 02:08:00;;;;;;;3.90;2.10;;;;;;;12.50;53.74;100616.88;3140655;28;20201;-63
2022/10/05 02:09:36;;;;;;;3.47;2.28;;;;;;;12.49;53.62;100619.56;3140661;28;20418;-63
2022/10/05 02:11:09;;;;;;;3.47;2.25;;;;;;;12.47;53.38;100614.38;3140676;28;20055;-65
2022/10/05 02:12:44;;;;;;;4.93;2.47;;;;;;;12.46;53.59;100628.38;3140527;28;20049;-63
2022/10/05 02:14:22;;;;;;;5.63;2.00;;;;;;;12.44;53.32;100624.97;3140491;28;20526;-64
2022/10/05 02:15:59;;;;;;;8.80;2.85;;;;;;;12.41;53.65;100635.53;3140521;28;20594;-64
2022/10/05 02:17:36;;;;;;;2.88;2.20;;;;;;;12.38;53.48;100634.81;3140599;28;20056;-64
2022/10/05 02:19:14;;;;;;;3.25;2.05;;;;;;;12.35;53.75;100633.16;3140490;28;20056;-64
2022/10/05 02:20:49;;;;;;;2.58;1.92;;;;;;;12.34;53.71;100638.47;3140511;28;20056;-64
2022/10/05 02:22:28;;;;;;;5.63;2.10;;;;;;;12.34;53.48;100641.91;3140549;28;20052;-63
2022/10/05 02:24:03;;;;;;;3.08;1.83;;;;;;;12.34;53.71;100647.16;3140470;28;20075;-64
2022/10/05 02:25:38;;;;;;;5.57;2.10;;;;;;;12.32;53.51;100643.72;3140779;28;20052;-64
2022/10/05 02:27:15;;;;;;;3.80;2.47;;;;;;;12.32;53.83;100643.72;3128160;28;20100;-64
2022/10/05 02:28:51;;;;;;;3.90;2.25;;;;;;;12.33;53.64;100650.63;3140163;28;20048;-64
2022/10/05 02:30:24;;;;;;;4.00;2.40;;;;;;;12.33;53.50;100648.03;3140353;28;20063;-64
2022/10/05 02:32:01;;;;;;;3.35;2.28;;;;;;;12.29;53.88;100651.69;3140111;28;20562;-64
2022/10/05 02:33:34;;;;;;;3.50;1.85;;;;;;;12.31;53.74;100655.09;3140674;28;20059;-64
2022/10/05 02:35:13;;;;;;;7.40;2.45;;;;;;;12.32;53.91;100659.41;3140293;28;20548;-64
2022/10/05 02:36:47;;;;;;;4.82;2.30;;;;;;;12.29;53.42;100662.13;3135628;28;20056;-64
2022/10/05 02:38:22;;;;;;;;;;;;;;;12.25;53.59;100663.16;3140555;28;20044;-66
2022/10/05 02:40:10;;;;;;;3.55;2.50;;;;;;;12.26;53.76;100667.47;3140280;28;20375;-65
2022/10/05 02:41:49;;;;;;;4.30;2.22;;;;;;;12.27;53.51;100669.16;3140504;28;20506;-65
2022/10/05 02:43:29;;;;;;;5.22;2.45;;;;;;;12.28;53.80;100668.28;3140257;28;20048;-64
2022/10/05 02:45:14;;;;;;;2.65;2.00;;;;;;;12.28;53.44;100673.50;3139065;28;20064;-65
2022/10/05 02:46:49;;;;;;;2.55;2.00;;;;;;;12.27;53.59;100672.66;3134088;28;20052;-65
2022/10/05 02:48:31;;;;;;;4.10;2.30;;;;;;;12.31;53.25;100665.53;3140089;28;20052;-64
2022/10/05 02:50:11;;;;;;;3.35;2.17;;;;;;;12.26;53.39;100665.72;3140228;28;20110;-65
2022/10/05 02:51:51;;;;;;;3.67;2.20;;;;;;;12.26;53.45;100663.09;3140063;28;20499;-65
2022/10/05 02:53:30;;;;;;;4.25;2.30;;;;;;;12.25;53.82;100665.78;3139977;28;20075;-65
2022/10/05 02:55:09;;;;;;;2.22;1.98;;;;;;;12.23;53.48;100659.75;3140147;28;20519;-65
2022/10/05 02:56:47;;;;;;;4.18;2.28;;;;;;;12.27;53.39;100675.25;3139989;28;20441;-64
2022/10/05 02:58:23;;;;;;;3.78;2.53;;;;;;;12.27;53.52;100682.22;3140308;28;20060;-64
2022/10/05 03:00:00;;;;;;;3.97;2.35;;;;;;;12.28;53.41;100676.97;3140224;28;20056;-64
2022/10/05 03:01:38;;;;;;;3.58;2.25;;;;;;;12.29;53.31;100680.41;3140216;28;20056;-64
2022/10/05 03:03:20;;;;;;;3.05;2.00;;;;;;;12.29;53.73;100685.63;3139432;28;20070;-64
2022/10/05 03:05:03;;;;;;;3.92;2.75;;;;;;;12.28;53.30;100686.56;3139963;28;20080;-64
2022/10/05 03:07:02;;;;;;;4.97;3.03;;;;;;;12.24;53.56;100680.56;3140742;28;20114;-64
2022/10/05 03:08:41;;;;;;;3.67;2.40;;;;;;;12.25;53.76;100690.13;3143434;28;20049;-64
2022/10/05 03:10:21;;;;;;;4.20;2.67;;;;;;;12.21;53.47;100680.69;3145060;28;20101;-64
2022/10/05 03:12:02;;;;;;;3.88;2.13;;;;;;;12.22;53.52;100685.03;3145299;28;20056;-64
2022/10/05 03:13:42;;;;;;;4.50;2.40;;;;;;;12.22;53.72;100686.78;3145373;28;20071;-64
2022/10/05 03:15:30;;;;;;;3.17;2.47;;;;;;;12.14;54.11;100684.44;3144931;28;20428;-64
2022/10/05 03:17:09;;;;;;;4.55;2.85;;;;;;;12.09;54.19;100683.75;3144953;28;20048;-64
2022/10/05 03:18:53;;;;;;;3.90;2.55;;;;;;;12.03;54.36;100671.78;3132550;28;20091;-64
2022/10/05 03:20:37;;;;;;;5.75;3.05;;;;;;;12.02;54.57;100690.97;3132736;28;20048;-64
2022/10/05 03:22:20;;;;;;;5.40;2.45;;;;;;;12.00;54.42;100687.56;3132748;28;20102;-64
2022/10/05 03:24:08;;;;;;;3.40;2.30;;;;;;;11.96;54.60;100678.16;3132804;28;20076;-64
2022/10/05 03:26:00;;;;;;;5.28;2.63;;;;;;;11.95;54.68;100680.81;3141533;28;20488;-64
2022/10/05 03:27:42;;;;;;;7.00;2.50;;;;;;;11.88;54.44;100677.59;3145238;28;20049;-64
2022/10/05 03:29:25;;;;;;;5.57;2.20;;;;;;;11.83;55.02;100682.06;3144754;28;20052;-64
2022/10/05 03:31:02;;;;;;;4.13;2.67;;;;;;;11.79;55.09;100683.09;3144680;28;20053;-65
2022/10/05 03:32:44;;;;;;;3.53;2.20;;;;;;;11.77;54.93;100685.78;3144605;28;20083;-64
2022/10/05 03:34:25;;;;;;;4.20;2.17;;;;;;;11.75;55.08;100691.97;3144553;28;20049;-64
2022/10/05 03:36:07;;;;;;;4.07;2.28;;;;;;;11.73;55.27;100684.19;3140303;28;20539;-65
2022/10/05 03:37:48;;;;;;;5.60;2.90;;;;;;;11.68;55.46;100690.47;3145007;28;20437;-65
2022/10/05 03:39:27;;;;;;;2.65;1.95;;;;;;;11.64;55.12;100687.13;3144696;28;20057;-65
2022/10/05 03:41:08;;;;;;;4.45;2.22;;;;;;;11.63;55.53;100687.19;3144744;28;20127;-65
2022/10/05 03:42:53;;;;;;;4.20;2.30;;;;;;;11.61;55.36;100685.47;3144844;28;20139;-65
2022/10/05 03:44:35;;;;;;;4.30;2.30;;;;;;;11.56;55.65;100692.59;3144726;28;20147;-64
2022/10/05 03:46:12;;;;;;;4.38;2.53;;;;;;;11.57;55.41;100701.28;3144440;28;20052;-65
2022/10/05 03:47:50;;;;;;;4.18;1.70;;;;;;;11.53;55.65;100703.13;3144877;28;20040;-64
2022/10/05 03:49:31;;;;;;;4.20;2.17;;;;;;;11.53;55.99;100707.50;3144162;28;20056;-64
2022/10/05 03:51:10;;;;;;;2.33;1.75;;;;;;;11.50;56.05;100707.59;3144476;28;20542;-63
2022/10/05 03:52:48;;;;;;;4.72;1.92;;;;;;;11.49;55.89;100698.94;3144801;28;20054;-64
2022/10/05 03:54:23;;;;;;;3.25;2.03;;;;;;;11.50;56.28;100698.03;3144469;28;20568;-63
2022/10/05 03:56:01;;;;;;;5.03;2.35;;;;;;;11.53;56.04;100692.69;3144679;28;20044;-64
2022/10/05 03:57:36;;;;;;;6.45;2.47;;;;;;;11.56;56.04;100710.00;3144837;28;20101;-63
2022/10/05 03:59:14;;;;;;;5.13;2.42;;;;;;;11.56;56.07;100707.41;3144294;28;20049;-63
2022/10/05 04:00:53;;;;;;;2.85;2.38;;;;;;;11.49;56.00;100701.53;3144406;28;20063;-64
2022/10/05 04:02:28;;;;;;;5.40;2.38;;;;;;;11.53;56.24;100703.13;3144515;28;20061;-63
2022/10/05 04:04:03;;;;;;;4.50;2.08;;;;;;;11.58;55.85;100716.88;3144522;28;20060;-63
2022/10/05 04:05:43;;;;;;;12.43;2.33;;;;;;;11.52;56.07;100701.44;3144646;28;20063;-64
2022/10/05 04:07:30;;;;;;;2.70;2.05;;;;;;;11.60;55.90;100725.50;3144791;28;20060;-63
2022/10/05 04:09:07;;;;;;;3.70;1.73;;;;;;;11.60;55.92;100719.44;3144802;28;20441;-64
2022/10/05 04:10:45;;;;;;;4.03;2.40;;;;;;;11.65;55.66;100730.56;3144451;28;20547;-64
2022/10/05 04:12:24;;;;;;;2.75;2.10;;;;;;;11.64;55.65;100715.81;3144509;28;20476;-64
2022/10/05 04:14:03;;;;;;;5.70;2.38;;;;;;;11.70;55.64;100722.56;3144524;28;20047;-63
2022/10/05 04:15:42;;;;;;;3.17;2.30;;;;;;;11.69;55.38;100719.13;3144784;28;20044;-63
2022/10/05 04:17:17;;;;;;;5.30;2.13;;;;;;;11.73;55.51;100723.31;3144070;28;20051;-63
2022/10/05 04:18:54;;;;;;;7.07;2.42;;;;;;;11.72;55.91;100724.22;3144378;28;20052;-63
2022/10/05 04:20:32;;;;;;;5.47;2.78;;;;;;;11.73;55.77;100736.34;3144449;28;20044;-63
2022/10/05 04:22:08;;;;;;;5.30;2.90;;;;;;;11.75;55.58;100731.94;3144180;28;20045;-63
2022/10/05 04:23:48;;;;;;;5.38;3.00;;;;;;;11.77;55.83;100731.88;3144661;28;20048;-63
2022/10/05 04:25:25;;;;;;;4.63;2.92;;;;;;;11.77;55.53;100737.97;3141353;28;20056;-63
2022/10/05 04:27:00;;;;;;;5.82;3.25;;;;;;;11.75;55.47;100731.09;3139223;28;20273;-63
2022/10/05 04:28:44;;;;;;;8.10;2.80;;;;;;;11.82;55.38;100740.41;3143125;28;20045;-64
2022/10/05 04:30:17;;;;;;;;;;;;;;;11.79;55.80;100741.38;3144649;28;20134;-65
2022/10/05 04:32:02;;;;;;;4.97;2.50;;;;;;;11.82;55.29;100745.63;3144048;28;19927;-63
2022/10/05 04:33:34;;;;;;;5.35;2.80;;;;;;;11.83;55.61;100742.97;3143728;28;20128;-67
2022/10/05 04:35:38;;;;;;;3.90;2.60;;;;;;;11.86;55.30;100744.66;3143561;28;20458;-65
2022/10/05 04:37:19;;;;;;;5.40;2.90;;;;;;;11.87;55.36;100735.91;3129495;28;20053;-66
2022/10/05 04:39:07;;;;;;;5.68;2.30;;;;;;;11.90;55.21;100741.03;3143860;28;20110;-63
2022/10/05 04:40:52;;;;;;;5.40;2.67;;;;;;;11.92;55.33;100741.84;3143552;28;20094;-63
2022/10/05 04:42:31;;;;;;;6.55;2.78;;;;;;;11.95;55.49;100741.72;3143869;28;20045;-65
2022/10/05 04:44:23;;;;;;;7.70;2.78;;;;;;;11.96;55.37;100742.56;3143670;28;20429;-64
2022/10/05 04:46:10;;;;;;;7.88;3.17;;;;;;;11.99;55.24;100745.91;3144057;28;20052;-65
2022/10/05 04:48:07;;;;;;;7.05;3.05;;;;;;;12.01;55.14;100744.13;3144179;28;20433;-64
2022/10/05 04:49:54;;;;;;;5.22;3.35;;;;;;;12.04;55.17;100745.75;3143897;28;20094;-64
2022/10/05 04:51:36;;;;;;;6.30;3.58;;;;;;;12.03;55.14;100746.66;3144008;28;20158;-67
2022/10/05 04:53:17;;;;;;;7.78;3.15;;;;;;;12.02;55.35;100750.19;3140477;28;20049;-65
2022/10/05 04:55:01;;;;;;;6.28;3.38;;;;;;;12.02;55.45;100752.78;3144229;28;20052;-64
2022/10/05 04:56:38;;;;;;;8.77;4.20;;;;;;;12.02;55.48;100755.41;3131531;28;20053;-64
2022/10/05 04:58:17;;;;;;;8.43;3.00;;;;;;;12.02;55.16;100756.25;3131833;28;20060;-64
2022/10/05 05:00:04;;;;;;;6.88;2.50;;;;;;;12.01;55.26;100754.56;3138791;28;20076;-64
2022/10/05 05:01:52;;;;;;;5.88;2.63;;;;;;;12.01;55.24;100767.59;3143326;28;20136;-64
2022/10/05 05:03:41;;;;;;;11.73;3.10;;;;;;;12.00;55.11;100765.88;3131882;28;20055;-64
2022/10/05 05:05:27;;;;;;;5.47;2.50;;;;;;;11.98;55.38;100764.22;3143211;28;20052;-63
2022/10/05 05:07:11;;;;;;;5.35;2.45;;;;;;;11.99;55.17;100774.63;3143694;28;20355;-64
2022/10/05 05:09:08;;;;;;;2.75;1.90;;;;;;;11.94;55.38;100773.09;3143881;28;20049;-64
2022/10/05 05:10:52;;;;;;;3.90;2.30;;;;;;;11.91;55.03;100771.44;3141158;28;20182;-64
2022/10/05 05:12:35;;;;;;;5.93;2.30;;;;;;;11.84;55.44;100778.59;3144043;28;20433;-64
2022/10/05 05:14:45;;;;;;;4.72;2.30;;;;;;;11.80;55.47;100778.75;3131845;28;20052;-65
2022/10/05 05:16:26;;;;;;;4.53;2.63;;;;;;;11.77;55.60;100778.84;3141163;28;20118;-64
2022/10/05 05:18:15;;;;;;;5.78;2.67;;;;;;;11.78;55.73;100783.19;3144015;28;20130;-61
2022/10/05 05:19:58;;;;;;;8.50;2.50;;;;;;;11.78;55.96;100783.19;3143912;28;20052;-63
2022/10/05 05:21:39;;;;;;;7.90;2.70;;;;;;;11.79;55.52;100769.22;3143814;28;20131;-61
2022/10/05 05:23:17;;;;;;;9.15;2.63;;;;;;;11.81;55.76;100775.25;3143567;28;20045;-63
2022/10/05 05:25:10;;;;;;;7.18;3.22;;;;;;;11.87;55.84;100788.13;3143699;28;20048;-62
2022/10/05 05:26:55;;;;;;;4.10;2.42;;;;;;;11.87;55.38;100785.50;3143454;28;20052;-62
2022/10/05 05:28:37;;;;;;;10.40;3.00;;;;;;;11.88;55.74;100789.81;3143777;28;20446;-62
2022/10/05 05:30:18;;;;;;;12.93;2.53;;;;;;;11.94;55.33;100788.75;3145935;28;20055;-62
2022/10/05 05:31:57;;;;;;;8.32;2.40;;;;;;;11.94;55.59;100786.97;3144861;28;20053;-62
2022/10/05 05:33:39;;;;;;;8.88;2.33;;;;;;;11.97;55.62;100788.63;3146043;28;20048;-62
2022/10/05 05:35:38;;;;;;;9.23;2.50;;;;;;;11.98;55.57;100785.13;3145832;28;20064;-62
2022/10/05 05:37:21;;;;;;;8.73;2.30;;;;;;;12.00;55.60;100796.38;3144824;28;20048;-63
2022/10/05 05:39:06;;;;;;;7.28;2.30;;;;;;;12.04;55.44;100797.97;3146158;28;20048;-62
2022/10/05 05:40:48;;;;;;;7.00;2.15;;;;;;;12.07;55.46;100795.25;3146162;28;20056;-63
2022/10/05 05:42:33;;;;;;;7.80;2.58;;;;;;;12.13;55.10;100802.03;3146157;28;20056;-63
2022/10/05 05:44:15;;;;;;;5.72;2.20;;;;;;;12.17;55.41;100801.00;3135715;28;20052;-63
2022/10/05 05:46:02;;;;;;;3.97;2.40;;;;;;;12.20;55.03;100808.72;3146166;28;20060;-64
2022/10/05 05:47:37;;;;;;;9.45;2.30;;;;;;;12.25;55.04;100806.81;3145935;28;20055;-62
2022/10/05 05:49:27;;;;;;;9.57;2.90;;;;;;;12.31;55.22;100809.19;3146183;28;20132;-63
2022/10/05 05:51:04;;;;;;;11.30;3.40;;;;;;;12.39;55.08;100811.50;3145635;28;20057;-63
2022/10/05 05:52:41;;;;;;;6.50;2.40;;;;;;;12.43;54.82;100807.91;3145826;28;20136;-63
2022/10/05 05:54:24;;;;;;;7.68;2.70;;;;;;;12.49;54.64;100816.34;3145873;28;20048;-66
2022/10/05 05:56:02;;;;;;;7.70;2.50;;;;;;;12.53;55.12;100815.31;3145846;28;20052;-65
2022/10/05 05:57:39;;;;;;;6.70;3.42;;;;;;;12.63;54.80;100822.81;3145952;28;20154;-66
2022/10/05 05:59:18;;;;;;;11.90;2.78;;;;;;;12.71;54.77;100829.47;3145834;28;20048;-68
2022/10/05 06:00:57;;;;;;;9.63;2.58;;;;;;;12.82;54.12;100833.44;3145215;28;20056;-69
2022/10/05 06:02:36;;;;;;;6.93;2.38;;;;;;;12.88;54.30;100826.22;3145469;28;20229;-67
2022/10/05 06:04:14;;;;;;;36.65;3.15;;;;;;;12.98;53.88;100829.31;3145866;28;20106;-65
2022/10/05 06:05:51;;;;;;;12.77;2.90;;;;;;;13.08;53.64;100829.84;3146158;28;20052;-67
2022/10/05 06:07:25;;;;;;;7.63;2.20;;;;;;;13.17;53.66;100840.78;3145567;28;20096;-62
2022/10/05 06:09:01;;;;;;;5.30;1.92;;;;;;;13.28;53.28;100836.91;3145556;28;20594;-63
2022/10/05 06:10:40;;;;;;;7.20;1.90;;;;;;;13.39;53.27;100843.41;3145794;28;20190;-64
2022/10/05 06:12:16;;;;;;;47.65;2.95;;;;;;;13.52;52.97;100841.16;3145860;28;20121;-65
2022/10/05 06:13:51;;;;;;;6.28;1.83;;;;;;;13.66;52.70;100848.44;3145738;28;20052;-67
2022/10/05 06:15:29;;;;;;;5.78;2.08;;;;;;;13.80;52.60;100846.09;3145351;28;20056;-70
2022/10/05 06:17:06;;;;;;;6.00;2.00;;;;;;;13.95;52.37;100843.75;3145451;28;20048;-70
2022/10/05 06:18:42;;;;;;;11.32;5.07;;;;;;;14.07;51.67;100844.06;3145614;28;20517;-66
2022/10/05 06:20:22;;;;;;;11.32;3.25;;;;;;;14.23;51.27;100860.00;3146048;28;20536;-65
2022/10/05 06:21:58;;;;;;;10.88;1.88;;;;;;;14.30;51.27;100852.72;3145640;28;20543;-64
2022/10/05 06:23:38;;;;;;;6.93;1.88;;;;;;;14.54;50.93;100862.13;3145750;28;20437;-65
2022/10/05 06:25:25;;;;;;;2.00;1.35;;;;;;;14.77;50.43;100863.72;3145280;28;20083;-65
2022/10/05 06:27:23;;;;;;;5.00;1.67;;;;;;;15.02;49.99;100863.47;3145680;28;20060;-63
2022/10/05 06:29:01;;;;;;;6.57;1.58;;;;;;;15.26;49.45;100868.44;3139619;28;20053;-63
2022/10/05 06:30:45;;;;;;;5.30;2.40;;;;;;;15.43;48.73;100862.41;3145239;28;20053;-65
2022/10/05 06:32:25;;;;;;;6.78;2.13;;;;;;;15.63;48.42;100875.41;3143615;28;20044;-63
2022/10/05 06:34:09;;;;;;;4.90;1.67;;;;;;;15.76;47.68;100873.06;3145650;28;20049;-62
2022/10/05 06:35:53;;;;;;;4.32;1.52;;;;;;;15.98;47.14;100872.84;3145180;28;20719;-60
2022/10/05 06:37:38;;;;;;;2.90;1.50;;;;;;;16.20;46.12;100874.38;3132999;28;20056;-64
2022/10/05 06:39:57;;;;;;;9.98;1.85;;;;;;;16.42;45.25;100872.34;3142316;28;20876;-64
2022/10/05 06:41:40;;;;;;;4.40;1.77;;;;;;;16.60;45.32;100867.88;3145139;28;20422;-66
2022/10/05 06:43:26;;;;;;;5.32;1.65;;;;;;;16.90;45.17;100873.31;3145155;28;20457;-64
2022/10/05 06:45:07;;;;;;;3.17;1.63;;;;;;;17.20;44.49;100880.44;3140481;28;20594;-66
2022/10/05 06:46:51;;;;;;;4.47;1.58;;;;;;;17.50;43.90;100873.44;3142093;28;20163;-63
2022/10/05 06:48:35;;;;;;;5.05;1.75;;;;;;;17.79;43.25;100876.22;3140578;28;20048;-65
2022/10/05 06:50:15;;;;;;;4.95;1.40;;;;;;;18.11;42.82;100870.88;3137472;28;20075;-65
2022/10/05 06:52:00;;;;;;;4.10;1.80;;;;;;;18.42;42.17;100870.69;3139379;28;20056;-64
2022/10/05 06:53:37;;;;;;;6.68;1.40;;;;;;;18.79;41.89;100871.13;3134587;28;20048;-64
2022/10/05 06:55:18;;;;;;;5.03;1.77;;;;;;;19.22;40.68;100864.91;3140184;28;20452;-65
2022/10/05 06:57:01;;;;;;;2.33;1.50;;;;;;;19.52;39.65;100870.84;3138269;28;20049;-63
2022/10/05 06:58:49;;;;;;;4.20;1.80;;;;;;;19.88;38.34;100865.91;3136949;28;20071;-68
2022/10/05 07:00:25;;;;;;;4.20;1.83;;;;;;;20.19;38.07;100859.38;3140757;28;20594;-63
2022/10/05 07:02:06;;;;;;;4.60;1.65;;;;;;;20.56;37.95;100862.16;3137498;28;20067;-63
2022/10/05 07:03:48;;;;;;;3.13;1.50;;;;;;;20.94;36.98;100862.09;3138377;28;20041;-63
2022/10/05 07:05:42;;;;;;;1.73;1.60;;;;;;;21.38;36.47;100858.00;3141459;28;20146;-63
2022/10/05 07:07:23;;;;;;;4.32;1.50;;;;;;;21.76;36.02;100856.97;3141337;28;20078;-63
2022/10/05 07:09:08;;;;;;;2.80;1.58;;;;;;;22.12;35.10;100853.31;3141283;28;20044;-62
2022/10/05 07:10:56;;;;;;;3.47;1.48;;;;;;;22.44;34.55;100861.47;3143459;28;20406;-63
2022/10/05 07:12:43;;;;;;;4.05;1.83;;;;;;;22.71;34.00;100857.59;3139171;28;20049;-62
2022/10/05 07:14:29;;;;;;;3.65;1.50;;;;;;;22.92;33.35;100855.91;3137095;28;20063;-62
2022/10/05 07:16:12;;;;;;;1.65;1.25;;;;;;;23.26;33.35;100853.19;3142149;28;20436;-66
2022/10/05 07:17:56;;;;;;;5.50;1.60;;;;;;;23.53;32.40;100859.88;3134861;28;20037;-63
2022/10/05 07:19:35;;;;;;;5.22;1.70;;;;;;;23.76;32.62;100861.50;3137519;28;20048;-66
2022/10/05 07:21:16;;;;;;;4.70;1.48;;;;;;;23.93;31.64;100859.22;3139521;28;20045;-63
2022/10/05 07:23:00;;;;;;;2.78;1.50;;;;;;;24.12;31.41;100863.84;3137391;28;20529;-63
2022/10/05 07:24:34;;;;;;;2.28;1.38;;;;;;;24.32;31.34;100856.81;3133546;28;20063;-65
2022/10/05 07:26:14;;;;;;;2.95;1.55;;;;;;;24.45;30.72;100857.44;3138050;28;20048;-64
2022/10/05 07:27:53;;;;;;;4.03;1.52;;;;;;;24.59;30.61;100861.59;3133316;28;20132;-65
2022/10/05 07:29:32;;;;;;;2.95;1.05;;;;;;;24.55;29.61;100858.34;3140487;28;20059;-64
2022/10/05 07:31:11;;;;;;;2.63;1.30;;;;;;;24.47;29.79;100867.00;3136892;28;20615;-63
2022/10/05 07:32:50;;;;;;;4.03;1.52;;;;;;;24.38;29.86;100859.78;3144011;28;20060;-61
2022/10/05 07:34:32;;;;;;;8.15;1.70;;;;;;;24.27;30.18;100862.50;3136029;28;20045;-61
2022/10/05 07:38:11;;;;;;;3.05;1.30;;;;;;;24.43;29.88;100856.72;3136734;28;20040;-62
2022/10/05 07:39:53;;;;;;;2.38;1.42;;;;;;;24.52;30.12;100858.59;3136953;28;20045;-62
2022/10/05 07:41:33;;;;;;;3.72;1.40;;;;;;;24.67;29.74;100846.63;3139120;28;20045;-62
2022/10/05 07:43:18;;;;;;;1.95;1.17;;;;;;;24.81;30.05;100852.53;3141224;28;20052;-61
2022/10/05 07:44:58;;;;;;;3.05;1.40;;;;;;;24.94;29.89;100847.81;3139133;28;20467;-61
2022/10/05 07:46:50;;;;;;;3.03;1.42;;;;;;;25.06;29.94;100845.88;3142765;28;20430;-61
2022/10/05 07:48:25;;;;;;;3.67;1.13;;;;;;;25.21;29.46;100843.69;3141948;28;20048;-61
2022/10/05 07:50:03;;;;;;;2.08;1.33;;;;;;;25.41;29.17;100848.06;3140781;28;20052;-60
2022/10/05 07:51:39;;;;;;;2.90;1.30;;;;;;;25.48;28.80;100848.34;3137631;28;20477;-60
2022/10/05 07:53:19;;;;;;;2.55;1.23;;;;;;;25.49;29.09;100850.84;3140600;28;20072;-61